Time;durP1;ratioP1;P1;durP2;ratioP2;P2;SDS_P1;SDS_P2;PMS_P1;PMS_P2;Temp;Humidity;BMP_temperature;BMP_pressure;BME280_temperature;BME280_humidity;BME280_pressure;Samples;Min_cycle;Max_cycle;Signal;HPM_P1;HPM_P2
2022/10/14 00:01:04;;;;;;;;;;;13.40;72.90;;;;;;5060715;28;19931;-76
2022/10/14 00:03:29;;;;;;;;;;;13.40;72.90;;;;;;5077723;28;20270;-77
2022/10/14 00:05:55;;;;;;;;;;;13.40;72.90;;;;;;5058354;28;19973;-76
2022/10/14 00:08:20;;;;;;;;;;;13.40;73.00;;;;;;5053242;28;20453;-77
2022/10/14 00:10:46;;;;;;;;;;;13.40;72.90;;;;;;5062438;28;19916;-76
2022/10/14 00:13:11;;;;;;;;;;;13.40;72.90;;;;;;5049617;28;19923;-76
2022/10/14 00:15:37;;;;;;;;;;;13.40;72.90;;;;;;5046226;28;19947;-77
2022/10/14 00:18:03;;;;;;;;;;;13.40;73.00;;;;;;5061785;28;19920;-76
2022/10/14 00:20:28;;;;;;;;;;;13.40;73.00;;;;;;5066928;28;19938;-77
2022/10/14 00:22:54;;;;;;;;;;;13.40;72.90;;;;;;5082338;28;20022;-77
2022/10/14 00:25:19;;;;;;;;;;;13.40;73.00;;;;;;5064190;28;19923;-76
2022/10/14 00:27:45;;;;;;;;;;;13.40;72.90;;;;;;5068095;28;19932;-76
2022/10/14 00:30:10;;;;;;;;;;;13.40;72.90;;;;;;5060333;28;20372;-76
2022/10/14 00:32:36;;;;;;;;;;;13.40;73.00;;;;;;5062767;28;19916;-77
2022/10/14 00:35:01;;;;;;;;;;;13.40;73.00;;;;;;5075051;28;19920;-77
2022/10/14 00:37:27;;;;;;;;;;;13.40;72.90;;;;;;5059462;28;20006;-77
2022/10/14 00:39:52;;;;;;;;;;;13.40;73.00;;;;;;5047686;28;20372;-76
2022/10/14 00:42:18;;;;;;;;;;;13.40;73.00;;;;;;5046046;28;19920;-76
2022/10/14 00:44:43;;;;;;;;;;;13.40;73.00;;;;;;5043307;28;20472;-76
2022/10/14 00:47:09;;;;;;;;;;;13.40;73.00;;;;;;5061947;28;19926;-77
2022/10/14 00:49:38;;;;;;;;;;;13.50;73.00;;;;;;5059459;28;19916;-77
2022/10/14 00:52:04;;;;;;;;;;;13.40;73.00;;;;;;5056859;28;19998;-76
2022/10/14 00:54:34;;;;;;;;;;;13.50;73.10;;;;;;5076765;28;19965;-76
2022/10/14 00:57:00;;;;;;;;;;;13.40;73.00;;;;;;5056701;28;20445;-77
2022/10/14 00:59:25;;;;;;;;;;;13.50;73.10;;;;;;5043305;28;19920;-77
2022/10/14 01:01:51;;;;;;;;;;;13.50;73.10;;;;;;5053888;28;19951;-77
2022/10/14 01:04:16;;;;;;;;;;;13.50;73.10;;;;;;5058353;28;19919;-76
2022/10/14 01:06:45;;;;;;;;;;;13.50;73.20;;;;;;5060942;28;19916;-77
2022/10/14 01:09:19;;;;;;;;;;;13.50;73.10;;;;;;5058291;28;20277;-77
2022/10/14 01:11:47;;;;;;;;;;;13.50;73.10;;;;;;5058285;28;19917;-77
2022/10/14 01:14:23;;;;;;;;;;;13.50;73.10;;;;;;5062071;28;19912;-77
2022/10/14 01:16:55;;;;;;;;;;;13.50;73.10;;;;;;5045506;28;19912;-77
2022/10/14 01:19:24;;;;;;;;;;;13.50;73.10;;;;;;5060420;28;20368;-77
2022/10/14 01:21:59;;;;;;;;;;;13.50;73.10;;;;;;5060402;28;19942;-77
2022/10/14 01:24:34;;;;;;;;;;;13.50;73.20;;;;;;5078957;28;19920;-77
2022/10/14 01:26:59;;;;;;;;;;;13.50;73.10;;;;;;5074597;28;21579;-78
2022/10/14 01:29:47;;;;;;;;;;;13.50;73.10;;;;;;5063545;28;19969;-77
2022/10/14 01:32:17;;;;;;;;;;;13.50;73.10;;;;;;5089486;28;19916;-77
2022/10/14 01:35:05;;;;;;;;;;;13.50;73.20;;;;;;5057633;28;19919;-76
2022/10/14 01:37:31;;;;;;;;;;;13.50;73.10;;;;;;5064535;28;19966;-77
2022/10/14 01:39:57;;;;;;;;;;;13.60;73.20;;;;;;5060770;28;19951;-76
2022/10/14 01:42:24;;;;;;;;;;;13.60;73.20;;;;;;5055783;28;19921;-77
2022/10/14 01:44:55;;;;;;;;;;;13.60;73.20;;;;;;5055477;28;20600;-77
2022/10/14 01:47:20;;;;;;;;;;;13.60;73.20;;;;;;5089754;28;20372;-77
2022/10/14 01:49:51;;;;;;;;;;;13.50;73.20;;;;;;5056514;28;19912;-78
2022/10/14 01:52:18;;;;;;;;;;;13.50;73.20;;;;;;5047101;28;20344;-76
2022/10/14 01:54:44;;;;;;;;;;;13.60;73.20;;;;;;5045607;28;21087;-77
2022/10/14 01:57:14;;;;;;;;;;;13.50;73.20;;;;;;5056773;28;19937;-78
2022/10/14 01:59:40;;;;;;;;;;;13.60;73.20;;;;;;5056040;28;19946;-77
2022/10/14 02:02:05;;;;;;;;;;;13.60;73.30;;;;;;5036695;28;19913;-77
2022/10/14 02:04:31;;;;;;;;;;;13.60;73.30;;;;;;5058039;28;19920;-77
2022/10/14 02:06:56;;;;;;;;;;;13.60;73.30;;;;;;5060277;28;19920;-77
2022/10/14 02:09:25;;;;;;;;;;;13.60;73.30;;;;;;5058814;28;19924;-77
2022/10/14 02:11:53;;;;;;;;;;;13.60;73.30;;;;;;5056692;28;20698;-78
2022/10/14 02:14:19;;;;;;;;;;;13.50;73.30;;;;;;5073190;28;19979;-77
2022/10/14 02:16:53;;;;;;;;;;;13.50;73.30;;;;;;5055810;28;20038;-77
2022/10/14 02:19:30;;;;;;;;;;;13.50;73.30;;;;;;5061517;28;19923;-77
2022/10/14 02:22:01;;;;;;;;;;;13.50;73.40;;;;;;5047074;28;19917;-77
2022/10/14 02:24:26;;;;;;;;;;;13.50;73.40;;;;;;5051644;28;19921;-78
2022/10/14 02:26:52;;;;;;;;;;;13.50;73.40;;;;;;5075992;28;19970;-78
2022/10/14 02:29:18;;;;;;;;;;;13.50;73.40;;;;;;5059855;28;19919;-77
2022/10/14 02:31:43;;;;;;;;;;;13.50;73.40;;;;;;5059989;28;19958;-77
2022/10/14 02:34:09;;;;;;;;;;;13.50;73.40;;;;;;5061657;28;20372;-77
2022/10/14 02:36:35;;;;;;;;;;;13.50;73.40;;;;;;5060436;28;19916;-77
2022/10/14 02:39:01;;;;;;;;;;;13.50;73.50;;;;;;5046800;28;19923;-77
2022/10/14 02:41:27;;;;;;;;;;;13.50;73.50;;;;;;5061279;28;20373;-76
2022/10/14 02:43:53;;;;;;;;;;;13.50;73.50;;;;;;5061885;28;19953;-77
2022/10/14 02:46:19;;;;;;;;;;;13.50;73.50;;;;;;5093634;28;19975;-77
2022/10/14 02:48:45;;;;;;;;;;;13.50;73.50;;;;;;5056822;28;19912;-77
2022/10/14 02:51:10;;;;;;;;;;;13.50;73.50;;;;;;5076200;28;19916;-77
2022/10/14 02:53:36;;;;;;;;;;;13.50;73.50;;;;;;5062800;28;20050;-77
2022/10/14 02:56:01;;;;;;;;;;;13.50;73.60;;;;;;5063966;28;19920;-77
2022/10/14 02:58:27;;;;;;;;;;;13.50;73.50;;;;;;5062444;28;19923;-77
2022/10/14 03:00:52;;;;;;;;;;;13.50;73.60;;;;;;5076469;28;19942;-78
2022/10/14 03:03:18;;;;;;;;;;;13.50;73.50;;;;;;5043758;28;19916;-77
2022/10/14 03:05:43;;;;;;;;;;;13.40;73.50;;;;;;5091110;28;19954;-76
2022/10/14 03:08:09;;;;;;;;;;;13.50;73.50;;;;;;5078382;28;19962;-76
2022/10/14 03:10:35;;;;;;;;;;;13.50;73.50;;;;;;5061979;28;19997;-77
2022/10/14 03:13:00;;;;;;;;;;;13.50;73.60;;;;;;5059483;28;20645;-77
2022/10/14 03:15:26;;;;;;;;;;;13.50;73.50;;;;;;5073547;28;19916;-76
2022/10/14 03:17:51;;;;;;;;;;;13.50;73.50;;;;;;5075316;28;19924;-77
2022/10/14 03:20:17;;;;;;;;;;;13.50;73.60;;;;;;5058585;28;20430;-77
2022/10/14 03:22:42;;;;;;;;;;;13.50;73.60;;;;;;5080808;28;19927;-76
2022/10/14 03:25:08;;;;;;;;;;;13.40;73.50;;;;;;5068241;28;19916;-77
2022/10/14 03:27:33;;;;;;;;;;;13.40;73.50;;;;;;5067141;28;19920;-76
2022/10/14 03:29:59;;;;;;;;;;;13.40;73.50;;;;;;5083077;28;19964;-77
2022/10/14 03:32:24;;;;;;;;;;;13.40;73.60;;;;;;5083616;28;19919;-76
2022/10/14 03:34:50;;;;;;;;;;;13.40;73.60;;;;;;5065912;28;19912;-76
2022/10/14 03:37:18;;;;;;;;;;;13.40;73.60;;;;;;5084815;28;20018;-78
2022/10/14 03:39:44;;;;;;;;;;;13.40;73.70;;;;;;5067571;28;19912;-76
2022/10/14 03:42:09;;;;;;;;;;;13.40;73.70;;;;;;5075431;28;19919;-77
2022/10/14 03:44:34;;;;;;;;;;;13.40;73.70;;;;;;5086187;28;19923;-77
2022/10/14 03:47:00;;;;;;;;;;;13.30;73.70;;;;;;5067451;28;19927;-76
2022/10/14 03:49:25;;;;;;;;;;;13.30;73.70;;;;;;5090112;28;19916;-76
2022/10/14 03:51:51;;;;;;;;;;;13.30;73.70;;;;;;5068502;28;19916;-78
2022/10/14 03:54:16;;;;;;;;;;;13.30;73.70;;;;;;5056108;28;19947;-78
2022/10/14 03:56:42;;;;;;;;;;;13.30;73.70;;;;;;5059643;28;19916;-76
2022/10/14 03:59:07;;;;;;;;;;;13.30;73.70;;;;;;5051399;28;21177;-78
2022/10/14 04:01:33;;;;;;;;;;;13.30;73.70;;;;;;5052195;28;19920;-76
2022/10/14 04:03:58;;;;;;;;;;;13.30;73.70;;;;;;5098480;27;19924;-76
2022/10/14 04:06:24;;;;;;;;;;;13.30;73.80;;;;;;5083514;28;19983;-77
2022/10/14 04:08:49;;;;;;;;;;;13.30;73.70;;;;;;5085477;28;19941;-76
2022/10/14 04:11:16;;;;;;;;;;;13.30;73.70;;;;;;5067303;28;19916;-76
2022/10/14 04:13:41;;;;;;;;;;;13.30;73.80;;;;;;5053763;28;19935;-75
2022/10/14 04:16:07;;;;;;;;;;;13.30;73.80;;;;;;5060672;28;19920;-75
2022/10/14 04:18:33;;;;;;;;;;;13.30;73.80;;;;;;5051703;28;19913;-75
2022/10/14 04:21:02;;;;;;;;;;;13.30;73.80;;;;;;5095783;27;20007;-76
2022/10/14 04:23:28;;;;;;;;;;;13.30;73.80;;;;;;5080857;28;19951;-75
2022/10/14 04:25:53;;;;;;;;;;;13.30;73.80;;;;;;5081572;28;20013;-76
2022/10/14 04:28:20;;;;;;;;;;;13.30;73.90;;;;;;5063552;28;19932;-76
2022/10/14 04:30:46;;;;;;;;;;;13.30;73.90;;;;;;5060072;28;20490;-79
2022/10/14 04:33:11;;;;;;;;;;;13.30;73.90;;;;;;5059735;28;20406;-75
2022/10/14 04:35:37;;;;;;;;;;;13.20;73.80;;;;;;5063204;28;19943;-76
2022/10/14 04:38:02;;;;;;;;;;;13.20;73.80;;;;;;5080243;28;19926;-74
2022/10/14 04:40:29;;;;;;;;;;;13.20;73.80;;;;;;5044091;28;19942;-75
2022/10/14 04:42:55;;;;;;;;;;;13.20;73.80;;;;;;5080523;28;19919;-77
2022/10/14 04:45:20;;;;;;;;;;;13.20;73.90;;;;;;5046176;28;19916;-77
2022/10/14 04:47:46;;;;;;;;;;;13.20;73.90;;;;;;5062484;27;19925;-77
2022/10/14 04:50:11;;;;;;;;;;;13.20;73.90;;;;;;5082914;28;19916;-78
2022/10/14 04:52:37;;;;;;;;;;;13.30;73.90;;;;;;5054155;28;19923;-77
2022/10/14 04:55:02;;;;;;;;;;;13.20;73.90;;;;;;5082140;28;19921;-76
2022/10/14 04:57:28;;;;;;;;;;;13.30;73.90;;;;;;5069770;28;19915;-77
2022/10/14 04:59:53;;;;;;;;;;;13.30;73.90;;;;;;5064526;28;19969;-76
2022/10/14 05:02:19;;;;;;;;;;;13.20;73.80;;;;;;5066016;28;19962;-77
2022/10/14 05:04:44;;;;;;;;;;;13.20;73.90;;;;;;5081295;28;20023;-76
2022/10/14 05:07:11;;;;;;;;;;;13.20;73.90;;;;;;5073186;28;19938;-76
2022/10/14 05:09:36;;;;;;;;;;;13.20;73.90;;;;;;5066052;28;19926;-76
2022/10/14 05:12:02;;;;;;;;;;;13.20;73.90;;;;;;5051528;28;19927;-77
2022/10/14 05:14:28;;;;;;;;;;;13.30;73.90;;;;;;5066827;28;20479;-78
2022/10/14 05:16:53;;;;;;;;;;;13.20;73.90;;;;;;5080725;28;19916;-76
2022/10/14 05:19:19;;;;;;;;;;;13.30;74.00;;;;;;5066094;28;20290;-77
2022/10/14 05:21:44;;;;;;;;;;;13.20;73.90;;;;;;5081192;28;19912;-76
2022/10/14 05:24:10;;;;;;;;;;;13.20;73.90;;;;;;5063995;28;19921;-76
2022/10/14 05:26:35;;;;;;;;;;;13.30;74.00;;;;;;5076533;28;20575;-77
2022/10/14 05:29:01;;;;;;;;;;;13.30;74.00;;;;;;5052426;28;19921;-75
2022/10/14 05:31:26;;;;;;;;;;;13.20;73.90;;;;;;5046068;28;19941;-76
2022/10/14 05:33:52;;;;;;;;;;;13.20;74.00;;;;;;5062947;28;20877;-77
2022/10/14 05:36:17;;;;;;;;;;;13.20;73.90;;;;;;5072889;28;19912;-77
2022/10/14 05:38:43;;;;;;;;;;;13.20;73.90;;;;;;5058482;28;20428;-77
2022/10/14 05:41:08;;;;;;;;;;;13.30;74.00;;;;;;5056535;28;19916;-75
2022/10/14 05:43:34;;;;;;;;;;;13.20;73.90;;;;;;5063102;28;20004;-76
2022/10/14 05:45:59;;;;;;;;;;;13.30;74.00;;;;;;5060151;28;19956;-76
2022/10/14 05:48:25;;;;;;;;;;;13.20;73.90;;;;;;5055576;28;19943;-76
2022/10/14 05:50:50;;;;;;;;;;;13.30;74.00;;;;;;5054397;28;19912;-76
2022/10/14 05:53:16;;;;;;;;;;;13.20;74.00;;;;;;5041944;28;20273;-76
2022/10/14 05:55:41;;;;;;;;;;;13.20;73.90;;;;;;5043771;28;20455;-77
2022/10/14 05:58:07;;;;;;;;;;;13.20;74.00;;;;;;5041396;28;20396;-77
2022/10/14 06:00:33;;;;;;;;;;;13.20;74.00;;;;;;5028122;28;19916;-77
2022/10/14 06:02:58;;;;;;;;;;;13.20;74.00;;;;;;5056197;28;19916;-76
2022/10/14 06:05:24;;;;;;;;;;;13.20;74.00;;;;;;5037617;28;20368;-77
2022/10/14 06:07:49;;;;;;;;;;;13.20;74.00;;;;;;5040780;28;19913;-77
2022/10/14 06:10:14;;;;;;;;;;;13.20;74.00;;;;;;5043244;28;20482;-77
2022/10/14 06:12:40;;;;;;;;;;;13.20;74.00;;;;;;5056104;28;19939;-76
2022/10/14 06:15:06;;;;;;;;;;;13.20;74.00;;;;;;5056459;28;20681;-76
2022/10/14 06:17:31;;;;;;;;;;;13.20;74.00;;;;;;5040539;28;19955;-77
2022/10/14 06:19:57;;;;;;;;;;;13.20;74.00;;;;;;5045505;28;19923;-76
2022/10/14 06:22:22;;;;;;;;;;;13.30;74.20;;;;;;5060764;28;20258;-76
2022/10/14 06:24:48;;;;;;;;;;;13.30;74.10;;;;;;5058408;28;19916;-77
2022/10/14 06:27:13;;;;;;;;;;;13.30;74.10;;;;;;5051327;28;19926;-77
2022/10/14 06:29:39;;;;;;;;;;;13.30;74.10;;;;;;5059523;28;20567;-77
2022/10/14 06:32:05;;;;;;;;;;;13.30;74.00;;;;;;5056215;28;19912;-77
2022/10/14 06:34:30;;;;;;;;;;;13.30;74.00;;;;;;5076036;28;19913;-77
2022/10/14 06:36:56;;;;;;;;;;;13.40;74.00;;;;;;5073166;28;19927;-76
2022/10/14 06:39:22;;;;;;;;;;;13.40;74.00;;;;;;5062471;28;19916;-77
2022/10/14 06:41:47;;;;;;;;;;;13.40;74.00;;;;;;5045426;28;20423;-76
2022/10/14 06:44:14;;;;;;;;;;;13.40;74.00;;;;;;5045124;28;20018;-75
2022/10/14 06:46:39;;;;;;;;;;;13.50;74.00;;;;;;5062302;28;19928;-76
2022/10/14 06:49:05;;;;;;;;;;;13.50;74.00;;;;;;5044420;28;19912;-76
2022/10/14 06:51:30;;;;;;;;;;;13.50;74.00;;;;;;5071278;28;20595;-76
2022/10/14 06:53:56;;;;;;;;;;;13.50;73.90;;;;;;5059595;28;20006;-76
2022/10/14 06:56:21;;;;;;;;;;;13.50;73.90;;;;;;5059362;28;20437;-76
2022/10/14 06:58:47;;;;;;;;;;;13.60;74.00;;;;;;5053162;28;19920;-75
2022/10/14 07:01:12;;;;;;;;;;;13.60;73.90;;;;;;5054499;28;19920;-76
2022/10/14 07:03:38;;;;;;;;;;;13.60;73.90;;;;;;5075344;28;19920;-76
2022/10/14 07:06:04;;;;;;;;;;;13.70;73.90;;;;;;5056977;28;19967;-76
2022/10/14 07:08:29;;;;;;;;;;;13.70;73.90;;;;;;5061808;28;19916;-77
2022/10/14 07:10:55;;;;;;;;;;;13.70;73.90;;;;;;5067076;28;19958;-77
2022/10/14 07:13:20;;;;;;;;;;;13.80;73.90;;;;;;5069013;28;19942;-76
2022/10/14 07:15:49;;;;;;;;;;;13.80;73.90;;;;;;5082938;28;19916;-77
2022/10/14 07:18:14;;;;;;;;;;;13.80;74.70;;;;;;5069969;28;19944;-77
2022/10/14 07:20:40;;;;;;;;;;;13.80;73.90;;;;;;5064987;28;19923;-77
2022/10/14 07:23:05;;;;;;;;;;;13.80;73.80;;;;;;5084674;28;19965;-77
2022/10/14 07:25:31;;;;;;;;;;;13.80;73.80;;;;;;5061629;28;20210;-77
2022/10/14 07:27:57;;;;;;;;;;;13.90;73.80;;;;;;5059078;28;19945;-76
2022/10/14 07:30:23;;;;;;;;;;;13.90;73.80;;;;;;5060817;28;19920;-77
2022/10/14 07:32:48;;;;;;;;;;;13.90;73.80;;;;;;5060777;28;19919;-77
2022/10/14 07:35:14;;;;;;;;;;;14.00;73.80;;;;;;5084272;28;19952;-77
2022/10/14 07:37:39;;;;;;;;;;;14.00;73.80;;;;;;5069951;28;19916;-77
2022/10/14 07:40:05;;;;;;;;;;;14.00;73.70;;;;;;5087815;28;19920;-78
2022/10/14 07:42:30;;;;;;;;;;;14.00;73.70;;;;;;5087535;28;19912;-77
2022/10/14 07:44:57;;;;;;;;;;;14.10;73.80;;;;;;5067816;28;20011;-77
2022/10/14 07:47:22;;;;;;;;;;;14.10;73.80;;;;;;5098881;27;19922;-77
2022/10/14 07:49:48;;;;;;;;;;;14.10;73.70;;;;;;5082804;28;19999;-77
2022/10/14 07:52:14;;;;;;;;;;;14.20;73.70;;;;;;5083436;28;19912;-77
2022/10/14 07:54:40;;;;;;;;;;;14.20;73.70;;;;;;5088793;28;19962;-77
2022/10/14 07:57:05;;;;;;;;;;;14.30;73.60;;;;;;5100859;27;19912;-77
2022/10/14 07:59:31;;;;;;;;;;;14.30;73.60;;;;;;5080007;28;20422;-77
2022/10/14 08:01:56;;;;;;;;;;;14.30;73.60;;;;;;5092300;28;20000;-77
2022/10/14 08:04:22;;;;;;;;;;;14.40;73.60;;;;;;5086223;28;19931;-77
2022/10/14 08:06:48;;;;;;;;;;;14.40;73.60;;;;;;5085320;28;20016;-77
2022/10/14 08:09:13;;;;;;;;;;;14.50;73.60;;;;;;5069331;28;19951;-77
2022/10/14 08:11:39;;;;;;;;;;;14.60;73.60;;;;;;5068871;28;19912;-78
2022/10/14 08:14:04;;;;;;;;;;;14.60;73.50;;;;;;5058731;28;19908;-77
2022/10/14 08:16:30;;;;;;;;;;;14.70;73.50;;;;;;5069832;28;19916;-78
2022/10/14 08:18:56;;;;;;;;;;;14.80;73.50;;;;;;5094429;27;19950;-78
2022/10/14 08:21:22;;;;;;;;;;;14.80;73.40;;;;;;5064969;28;19951;-78
2022/10/14 08:23:47;;;;;;;;;;;14.90;73.40;;;;;;5080342;28;19920;-77
2022/10/14 08:26:19;;;;;;;;;;;14.90;73.30;;;;;;5083732;28;19994;-77
2022/10/14 08:28:44;;;;;;;;;;;14.90;73.30;;;;;;5082133;28;20319;-79
2022/10/14 08:31:10;;;;;;;;;;;15.00;74.00;;;;;;5061674;28;19912;-78
2022/10/14 08:33:35;;;;;;;;;;;15.00;73.20;;;;;;5064279;28;19916;-78
2022/10/14 08:36:01;;;;;;;;;;;15.10;73.20;;;;;;5079677;28;19924;-78
2022/10/14 08:38:27;;;;;;;;;;;15.20;73.20;;;;;;5062591;28;19916;-79
2022/10/14 08:40:53;;;;;;;;;;;15.20;73.10;;;;;;5031953;28;19924;-78
2022/10/14 08:43:20;;;;;;;;;;;15.30;73.10;;;;;;5065445;28;20291;-78
2022/10/14 08:45:46;;;;;;;;;;;15.30;73.00;;;;;;5045452;28;20463;-78
2022/10/14 08:48:13;;;;;;;;;;;15.40;73.00;;;;;;5062423;28;19913;-78
2022/10/14 08:50:43;;;;;;;;;;;15.50;72.90;;;;;;5078120;28;19916;-78
2022/10/14 08:53:11;;;;;;;;;;;15.50;72.90;;;;;;5047993;28;20460;-77
2022/10/14 08:55:40;;;;;;;;;;;15.50;72.80;;;;;;5050041;28;20019;-77
2022/10/14 08:58:13;;;;;;;;;;;15.60;72.80;;;;;;5043034;28;19920;-78
2022/10/14 09:00:41;;;;;;;;;;;15.60;72.80;;;;;;5047436;28;19951;-78
2022/10/14 09:03:20;;;;;;;;;;;15.70;72.80;;;;;;5064267;28;19921;-78
2022/10/14 09:05:46;;;;;;;;;;;15.70;72.60;;;;;;5066761;28;20000;-78
2022/10/14 09:08:13;;;;;;;;;;;15.80;72.70;;;;;;5060838;28;20662;-79
2022/10/14 09:10:39;;;;;;;;;;;15.80;72.70;;;;;;5047972;28;19920;-78
2022/10/14 09:13:07;;;;;;;;;;;15.90;72.60;;;;;;5028407;28;20017;-78
2022/10/14 09:15:37;;;;;;;;;;;15.90;72.60;;;;;;5060537;28;20007;-78
2022/10/14 09:18:16;;;;;;;;;;;16.00;72.60;;;;;;5057449;28;20410;-77
2022/10/14 09:20:41;;;;;;;;;;;16.10;72.50;;;;;;5046187;28;20018;-78
2022/10/14 09:23:07;;;;;;;;;;;16.20;72.40;;;;;;5062549;28;19995;-79
2022/10/14 09:25:32;;;;;;;;;;;16.20;72.30;;;;;;5067780;28;19916;-79
2022/10/14 09:27:58;;;;;;;;;;;16.30;72.30;;;;;;5054520;28;20221;-77
2022/10/14 09:30:23;;;;;;;;;;;16.40;72.30;;;;;;5036316;28;19913;-77
2022/10/14 09:32:52;;;;;;;;;;;16.40;72.20;;;;;;5055798;28;20015;-79
2022/10/14 09:35:21;;;;;;;;;;;16.50;72.20;;;;;;5049383;28;19920;-78
2022/10/14 09:37:46;;;;;;;;;;;16.50;72.10;;;;;;5057086;28;20649;-78
2022/10/14 09:40:12;;;;;;;;;;;16.50;72.10;;;;;;5050337;28;19912;-78
2022/10/14 09:42:47;;;;;;;;;;;16.50;72.00;;;;;;5041724;28;20811;-78
2022/10/14 09:45:14;;;;;;;;;;;16.50;72.00;;;;;;5071034;28;19947;-78
2022/10/14 09:47:48;;;;;;;;;;;16.60;72.10;;;;;;5022298;28;19937;-78
2022/10/14 09:50:24;;;;;;;;;;;16.60;72.10;;;;;;5038931;28;19917;-78
2022/10/14 09:52:51;;;;;;;;;;;16.70;72.10;;;;;;5068758;28;19923;-79
2022/10/14 09:55:18;;;;;;;;;;;16.70;72.00;;;;;;5024605;28;20608;-78
2022/10/14 09:57:43;;;;;;;;;;;16.80;72.10;;;;;;5020556;28;19913;-78
2022/10/14 10:00:12;;;;;;;;;;;16.80;72.00;;;;;;5040083;28;20000;-78
2022/10/14 10:02:40;;;;;;;;;;;17.00;71.90;;;;;;5036088;28;19931;-78
2022/10/14 10:05:21;;;;;;;;;;;17.10;71.90;;;;;;5026512;28;19948;-78
2022/10/14 10:07:59;;;;;;;;;;;17.10;71.70;;;;;;5047904;28;20401;-80
2022/10/14 10:10:24;;;;;;;;;;;17.30;71.70;;;;;;5059920;28;20435;-78
2022/10/14 10:12:50;;;;;;;;;;;17.40;71.60;;;;;;5039619;28;20022;-79
2022/10/14 10:15:16;;;;;;;;;;;17.50;71.40;;;;;;5047934;28;19917;-77
2022/10/14 10:17:43;;;;;;;;;;;17.60;71.30;;;;;;5059724;28;19916;-78
2022/10/14 10:20:30;;;;;;;;;;;17.70;71.20;;;;;;5038328;28;20383;-78
2022/10/14 10:22:56;;;;;;;;;;;17.80;71.20;;;;;;5030750;28;19912;-78
2022/10/14 10:25:26;;;;;;;;;;;17.80;71.10;;;;;;5041220;28;21641;-77
2022/10/14 10:27:56;;;;;;;;;;;17.90;71.00;;;;;;5058521;28;20050;-78
2022/10/14 10:30:28;;;;;;;;;;;17.90;70.90;;;;;;5049964;28;19927;-79
2022/10/14 10:32:56;;;;;;;;;;;18.00;70.90;;;;;;5094898;28;19916;-78
2022/10/14 10:35:42;;;;;;;;;;;18.00;70.80;;;;;;5077647;28;20262;-77
2022/10/14 10:38:29;;;;;;;;;;;18.10;70.80;;;;;;5076451;28;19920;-78
2022/10/14 10:40:59;;;;;;;;;;;18.20;70.80;;;;;;5079892;28;20288;-79
2022/10/14 10:43:41;;;;;;;;;;;18.20;70.80;;;;;;5049817;28;20396;-78
2022/10/14 10:46:21;;;;;;;;;;;18.30;70.70;;;;;;5079811;28;19920;-77
2022/10/14 10:48:51;;;;;;;;;;;18.30;70.70;;;;;;5073134;28;19916;-77
2022/10/14 10:51:35;;;;;;;;;;;18.40;70.60;;;;;;5082650;28;21263;-78
2022/10/14 10:54:05;;;;;;;;;;;18.40;70.60;;;;;;5086969;28;19920;-78
2022/10/14 10:56:45;;;;;;;;;;;18.40;70.50;;;;;;5070080;28;19935;-78
2022/10/14 10:59:16;;;;;;;;;;;18.40;70.50;;;;;;5047286;28;19948;-78
2022/10/14 11:02:09;;;;;;;;;;;18.50;70.60;;;;;;5083653;28;19913;-77
2022/10/14 11:04:37;;;;;;;;;;;18.50;70.40;;;;;;5067216;28;20008;-78
2022/10/14 11:12:58;;;;;;;;;;;18.60;70.40;;;;;;5087546;28;19977;-77
2022/10/14 11:15:24;;;;;;;;;;;18.60;70.40;;;;;;5067595;28;19935;-76
2022/10/14 11:17:54;;;;;;;;;;;18.60;70.40;;;;;;5085549;28;20343;-77
2022/10/14 11:20:28;;;;;;;;;;;18.60;70.40;;;;;;5067453;28;19920;-77
2022/10/14 11:23:03;;;;;;;;;;;18.60;70.40;;;;;;5082670;28;19926;-76
2022/10/14 11:25:48;;;;;;;;;;;18.60;70.40;;;;;;5056263;28;19954;-77
2022/10/14 11:28:34;;;;;;;;;;;18.60;70.40;;;;;;5071560;28;20287;-76
2022/10/14 11:31:00;;;;;;;;;;;18.60;70.30;;;;;;5076363;28;19920;-77
2022/10/14 11:33:29;;;;;;;;;;;18.60;70.30;;;;;;5081060;28;20119;-78
2022/10/14 11:35:54;;;;;;;;;;;18.60;70.40;;;;;;5063896;28;19977;-77
2022/10/14 11:38:19;;;;;;;;;;;18.60;70.40;;;;;;5078275;28;20621;-77
2022/10/14 11:40:54;;;;;;;;;;;18.60;70.30;;;;;;5062678;28;20298;-77
2022/10/14 11:43:26;;;;;;;;;;;18.60;70.30;;;;;;5076949;28;19927;-78
2022/10/14 11:45:54;;;;;;;;;;;18.60;70.40;;;;;;5082038;28;19926;-76
2022/10/14 11:48:22;;;;;;;;;;;18.60;70.30;;;;;;5071903;28;19928;-75
2022/10/14 11:50:49;;;;;;;;;;;18.60;70.40;;;;;;5077752;28;19916;-75
2022/10/14 11:53:37;;;;;;;;;;;18.50;70.40;;;;;;5064836;28;20257;-76
2022/10/14 11:56:11;;;;;;;;;;;18.50;70.40;;;;;;5071858;28;19920;-76
2022/10/14 11:58:36;;;;;;;;;;;18.50;70.50;;;;;;5062803;28;19927;-78
2022/10/14 12:01:02;;;;;;;;;;;18.60;70.40;;;;;;5073783;28;19920;-78
2022/10/14 12:03:45;;;;;;;;;;;18.60;70.40;;;;;;5048174;28;19916;-78
2022/10/14 12:06:18;;;;;;;;;;;18.60;70.40;;;;;;5089972;28;19924;-78
2022/10/14 12:08:51;;;;;;;;;;;18.60;70.30;;;;;;5066195;28;19923;-78
2022/10/14 12:11:17;;;;;;;;;;;18.60;70.30;;;;;;5065726;28;19923;-78
2022/10/14 12:13:46;;;;;;;;;;;18.60;70.30;;;;;;5089116;28;19896;-78
2022/10/14 12:16:12;;;;;;;;;;;18.70;70.30;;;;;;5065988;28;20018;-78
2022/10/14 12:18:38;;;;;;;;;;;18.70;70.20;;;;;;5057869;28;19920;-79
2022/10/14 12:21:13;;;;;;;;;;;18.80;70.10;;;;;;5078268;28;20222;-77
2022/10/14 12:23:41;;;;;;;;;;;18.80;70.00;;;;;;5094119;28;19916;-79
2022/10/14 12:26:12;;;;;;;;;;;18.80;70.00;;;;;;5080975;28;19943;-79
2022/10/14 12:28:37;;;;;;;;;;;18.80;70.00;;;;;;5068888;28;19924;-78
2022/10/14 12:31:21;;;;;;;;;;;18.90;70.00;;;;;;5069466;28;19928;-77
2022/10/14 12:34:23;;;;;;;;;;;18.80;70.00;;;;;;5087451;28;19912;-78
2022/10/14 12:36:49;;;;;;;;;;;18.90;70.00;;;;;;4985641;28;19921;-80
2022/10/14 12:39:17;;;;;;;;;;;18.90;70.00;;;;;;5049534;28;20273;-78
2022/10/14 12:41:58;;;;;;;;;;;19.00;70.00;;;;;;5091500;28;20284;-78
2022/10/14 12:44:28;;;;;;;;;;;19.00;69.80;;;;;;5089055;28;19923;-78
2022/10/14 12:46:53;;;;;;;;;;;19.10;69.80;;;;;;5106740;28;19912;-78
2022/10/14 12:49:23;;;;;;;;;;;19.10;69.70;;;;;;5070216;28;19923;-78
2022/10/14 12:51:53;;;;;;;;;;;19.20;69.70;;;;;;5059855;28;19923;-78
2022/10/14 12:54:24;;;;;;;;;;;19.10;69.60;;;;;;5070128;28;19927;-77
2022/10/14 12:56:53;;;;;;;;;;;19.10;69.70;;;;;;5093328;28;19910;-78
2022/10/14 12:59:20;;;;;;;;;;;19.10;69.70;;;;;;5068158;28;19974;-78
2022/10/14 13:01:47;;;;;;;;;;;19.10;69.80;;;;;;5093240;28;19919;-78
2022/10/14 13:04:17;;;;;;;;;;;19.10;69.80;;;;;;5074294;28;19923;-78
2022/10/14 13:06:42;;;;;;;;;;;19.10;69.80;;;;;;5061425;28;19920;-78
2022/10/14 13:09:10;;;;;;;;;;;19.10;69.80;;;;;;5081313;28;20000;-78
2022/10/14 13:11:37;;;;;;;;;;;19.10;69.80;;;;;;5090519;28;19920;-78
2022/10/14 13:14:22;;;;;;;;;;;19.10;69.70;;;;;;5091653;28;19920;-78
2022/10/14 13:16:50;;;;;;;;;;;19.10;69.70;;;;;;5060497;28;19964;-78
2022/10/14 13:19:36;;;;;;;;;;;19.20;69.70;;;;;;5095012;28;19916;-78
2022/10/14 13:22:31;;;;;;;;;;;19.20;69.70;;;;;;5071193;28;19923;-78
2022/10/14 13:25:06;;;;;;;;;;;19.10;69.60;;;;;;5073906;28;19920;-79
2022/10/14 13:27:45;;;;;;;;;;;19.10;69.70;;;;;;5086030;28;19931;-79
2022/10/14 13:30:13;;;;;;;;;;;19.00;69.70;;;;;;5075047;28;19924;-78
2022/10/14 13:32:52;;;;;;;;;;;19.00;69.80;;;;;;5080099;28;19912;-78
2022/10/14 13:35:56;;;;;;;;;;;19.00;69.80;;;;;;5078404;28;19914;-79
2022/10/14 13:38:22;;;;;;;;;;;19.00;69.80;;;;;;4989711;28;19941;-79
2022/10/14 13:40:54;;;;;;;;;;;19.00;70.60;;;;;;4979598;28;19910;-78
2022/10/14 13:43:25;;;;;;;;;;;19.00;69.80;;;;;;4991325;28;19981;-78
2022/10/14 13:45:55;;;;;;;;;;;19.00;69.80;;;;;;4966344;28;19937;-78
2022/10/14 13:48:30;;;;;;;;;;;19.00;69.80;;;;;;5007284;28;19932;-78
2022/10/14 13:51:08;;;;;;;;;;;18.90;69.80;;;;;;4997117;28;19910;-79
2022/10/14 13:53:34;;;;;;;;;;;18.90;69.90;;;;;;5007859;28;19977;-76
2022/10/14 13:55:59;;;;;;;;;;;18.90;69.90;;;;;;4992373;28;19914;-78
2022/10/14 13:58:25;;;;;;;;;;;18.90;69.90;;;;;;4990667;28;20369;-78
2022/10/14 14:00:50;;;;;;;;;;;18.90;69.80;;;;;;4989876;28;19962;-77
2022/10/14 14:03:22;;;;;;;;;;;18.90;69.90;;;;;;5007349;28;20373;-77
2022/10/14 14:05:48;;;;;;;;;;;18.80;69.80;;;;;;4978979;28;19918;-77
2022/10/14 14:08:15;;;;;;;;;;;18.70;69.80;;;;;;4991123;28;19914;-77
2022/10/14 14:10:41;;;;;;;;;;;18.70;69.90;;;;;;5084480;28;19908;-77
2022/10/14 14:13:09;;;;;;;;;;;18.70;70.00;;;;;;5075179;28;20396;-77
2022/10/14 14:15:35;;;;;;;;;;;18.60;70.00;;;;;;5075916;28;20405;-79
2022/10/14 14:18:00;;;;;;;;;;;18.60;70.10;;;;;;5072744;28;19938;-78
2022/10/14 14:20:28;;;;;;;;;;;18.50;70.10;;;;;;5089583;28;19940;-78
2022/10/14 14:22:56;;;;;;;;;;;18.40;70.20;;;;;;5093539;28;19912;-78
2022/10/14 14:25:23;;;;;;;;;;;18.40;70.20;;;;;;5081556;28;19920;-78
2022/10/14 14:27:52;;;;;;;;;;;18.30;70.30;;;;;;5092238;28;19924;-77